sensor_id;sensor_type;location;lat;lon;timestamp;pressure;altitude;pressure_sealevel;temperature;humidity
64698;BME280;51124;53.394;-6.294;2023-04-22T00:01:00;100232.98;;;17.76;8.81
64698;BME280;51124;53.394;-6.294;2023-04-22T00:03:34;100233.01;;;18.66;8.46
64698;BME280;51124;53.394;-6.294;2023-04-22T00:06:11;100223.51;;;18.04;8.57
64698;BME280;51124;53.394;-6.294;2023-04-22T00:08:39;100217.25;;;18.12;8.75
64698;BME280;51124;53.394;-6.294;2023-04-22T00:11:06;100219.99;;;18.58;8.74
64698;BME280;51124;53.394;-6.294;2023-04-22T00:13:33;100215.24;;;18.75;8.58
64698;BME280;51124;53.394;-6.294;2023-04-22T00:16:01;100211.81;;;17.94;8.70
64698;BME280;51124;53.394;-6.294;2023-04-22T00:18:28;100205.71;;;18.41;8.74
64698;BME280;51124;53.394;-6.294;2023-04-22T00:20:55;100206.96;;;18.56;8.70
64698;BME280;51124;53.394;-6.294;2023-04-22T00:23:23;100202.52;;;17.55;9.10
64698;BME280;51124;53.394;-6.294;2023-04-22T00:25:50;100204.75;;;17.31;8.97
64698;BME280;51124;53.394;-6.294;2023-04-22T00:28:17;100196.02;;;17.76;8.75
64698;BME280;51124;53.394;-6.294;2023-04-22T00:30:44;100195.37;;;18.12;8.84
64698;BME280;51124;53.394;-6.294;2023-04-22T00:33:11;100188.47;;;19.09;8.57
64698;BME280;51124;53.394;-6.294;2023-04-22T00:35:39;100185.70;;;18.21;8.61
64698;BME280;51124;53.394;-6.294;2023-04-22T00:38:06;100180.56;;;18.57;8.73
64698;BME280;51124;53.394;-6.294;2023-04-22T00:40:33;100175.80;;;20.25;9.03
64698;BME280;51124;53.394;-6.294;2023-04-22T00:43:01;100173.22;;;19.56;9.28
64698;BME280;51124;53.394;-6.294;2023-04-22T00:45:29;100168.85;;;18.11;9.43
64698;BME280;51124;53.394;-6.294;2023-04-22T00:47:57;100162.50;;;20.88;9.67
64698;BME280;51124;53.394;-6.294;2023-04-22T00:50:25;100170.69;;;21.55;10.05
64698;BME280;51124;53.394;-6.294;2023-04-22T00:52:53;100167.93;;;21.04;10.31
64698;BME280;51124;53.394;-6.294;2023-04-22T00:55:20;100172.90;;;20.21;10.57
64698;BME280;51124;53.394;-6.294;2023-04-22T00:57:49;100166.86;;;21.13;10.39
64698;BME280;51124;53.394;-6.294;2023-04-22T01:00:18;100173.68;;;20.06;10.88
64698;BME280;51124;53.394;-6.294;2023-04-22T01:02:46;100169.58;;;19.60;10.94
64698;BME280;51124;53.394;-6.294;2023-04-22T01:05:14;100159.73;;;20.52;10.74
64698;BME280;51124;53.394;-6.294;2023-04-22T01:07:42;100163.56;;;20.60;10.93
64698;BME280;51124;53.394;-6.294;2023-04-22T01:10:10;100159.74;;;20.07;10.84
64698;BME280;51124;53.394;-6.294;2023-04-22T01:12:37;100158.16;;;19.96;10.91
64698;BME280;51124;53.394;-6.294;2023-04-22T01:15:06;100151.82;;;20.66;10.89
64698;BME280;51124;53.394;-6.294;2023-04-22T01:17:34;100149.99;;;19.85;11.00
64698;BME280;51124;53.394;-6.294;2023-04-22T01:20:02;100142.70;;;20.65;10.91
64698;BME280;51124;53.394;-6.294;2023-04-22T01:22:34;100139.75;;;19.86;11.01
64698;BME280;51124;53.394;-6.294;2023-04-22T01:25:03;100137.28;;;20.16;11.06
64698;BME280;51124;53.394;-6.294;2023-04-22T01:27:30;100133.14;;;20.11;11.00
64698;BME280;51124;53.394;-6.294;2023-04-22T01:29:58;100121.48;;;19.69;11.15
64698;BME280;51124;53.394;-6.294;2023-04-22T01:32:26;100114.76;;;19.86;11.21
64698;BME280;51124;53.394;-6.294;2023-04-22T01:34:54;100105.80;;;19.96;11.11
64698;BME280;51124;53.394;-6.294;2023-04-22T01:37:21;100104.33;;;19.47;11.09
64698;BME280;51124;53.394;-6.294;2023-04-22T01:39:48;100095.43;;;17.45;10.72
64698;BME280;51124;53.394;-6.294;2023-04-22T01:42:16;100095.09;;;17.26;10.35
64698;BME280;51124;53.394;-6.294;2023-04-22T01:44:43;100093.60;;;17.40;9.94
64698;BME280;51124;53.394;-6.294;2023-04-22T01:47:11;100093.56;;;19.00;9.71
64698;BME280;51124;53.394;-6.294;2023-04-22T01:49:38;100095.02;;;18.18;9.70
64698;BME280;51124;53.394;-6.294;2023-04-22T01:52:05;100100.04;;;16.98;9.61
64698;BME280;51124;53.394;-6.294;2023-04-22T01:54:33;100100.71;;;17.80;9.31
64698;BME280;51124;53.394;-6.294;2023-04-22T01:57:01;100096.35;;;17.97;9.16
64698;BME280;51124;53.394;-6.294;2023-04-22T01:59:32;100095.81;;;18.27;9.00
64698;BME280;51124;53.394;-6.294;2023-04-22T02:01:59;100096.47;;;18.22;9.03
64698;BME280;51124;53.394;-6.294;2023-04-22T02:04:26;100092.66;;;17.51;9.17
64698;BME280;51124;53.394;-6.294;2023-04-22T02:06:54;100089.31;;;17.95;9.11
64698;BME280;51124;53.394;-6.294;2023-04-22T02:09:21;100085.85;;;18.81;8.84
64698;BME280;51124;53.394;-6.294;2023-04-22T02:11:48;100083.89;;;18.19;8.89
64698;BME280;51124;53.394;-6.294;2023-04-22T02:14:15;100081.75;;;18.27;8.74
64698;BME280;51124;53.394;-6.294;2023-04-22T02:16:43;100083.92;;;17.64;8.90
64698;BME280;51124;53.394;-6.294;2023-04-22T02:19:10;100078.04;;;17.83;8.85
64698;BME280;51124;53.394;-6.294;2023-04-22T02:21:38;100084.66;;;17.98;8.84
64698;BME280;51124;53.394;-6.294;2023-04-22T02:24:06;100082.74;;;17.35;8.85
64698;BME280;51124;53.394;-6.294;2023-04-22T02:26:33;100075.50;;;17.97;8.92
64698;BME280;51124;53.394;-6.294;2023-04-22T02:29:01;100074.05;;;17.69;9.03
64698;BME280;51124;53.394;-6.294;2023-04-22T02:31:28;100067.85;;;18.52;8.79
64698;BME280;51124;53.394;-6.294;2023-04-22T02:33:56;100062.62;;;17.91;8.85
64698;BME280;51124;53.394;-6.294;2023-04-22T02:36:23;100061.92;;;18.18;8.79
64698;BME280;51124;53.394;-6.294;2023-04-22T02:38:50;100059.58;;;17.40;8.97
64698;BME280;51124;53.394;-6.294;2023-04-22T02:41:18;100057.32;;;18.02;8.66
64698;BME280;51124;53.394;-6.294;2023-04-22T02:43:45;100063.33;;;17.75;8.67
64698;BME280;51124;53.394;-6.294;2023-04-22T02:46:12;100057.75;;;17.22;8.77
64698;BME280;51124;53.394;-6.294;2023-04-22T02:48:39;100052.64;;;18.00;8.59
64698;BME280;51124;53.394;-6.294;2023-04-22T02:51:07;100056.13;;;18.26;8.74
64698;BME280;51124;53.394;-6.294;2023-04-22T02:53:34;100055.34;;;17.26;8.83
64698;BME280;51124;53.394;-6.294;2023-04-22T02:56:02;100052.03;;;18.37;8.62
64698;BME280;51124;53.394;-6.294;2023-04-22T02:58:29;100047.95;;;17.61;8.65
64698;BME280;51124;53.394;-6.294;2023-04-22T03:00:56;100045.62;;;17.88;8.63
64698;BME280;51124;53.394;-6.294;2023-04-22T03:03:23;100046.09;;;17.94;8.63
64698;BME280;51124;53.394;-6.294;2023-04-22T03:05:51;100042.18;;;18.01;8.65
64698;BME280;51124;53.394;-6.294;2023-04-22T03:08:18;100035.00;;;18.52;8.76
64698;BME280;51124;53.394;-6.294;2023-04-22T03:10:45;100032.11;;;18.04;8.76
64698;BME280;51124;53.394;-6.294;2023-04-22T03:13:13;100026.20;;;17.27;8.65
64698;BME280;51124;53.394;-6.294;2023-04-22T03:15:41;100022.85;;;17.86;8.63
64698;BME280;51124;53.394;-6.294;2023-04-22T03:18:08;100018.41;;;17.63;8.98
64698;BME280;51124;53.394;-6.294;2023-04-22T03:20:36;100012.01;;;17.60;8.82
64698;BME280;51124;53.394;-6.294;2023-04-22T03:23:03;100009.06;;;18.05;8.82
64698;BME280;51124;53.394;-6.294;2023-04-22T03:25:31;100008.51;;;18.09;8.84
64698;BME280;51124;53.394;-6.294;2023-04-22T03:27:58;100000.72;;;17.28;8.75
64698;BME280;51124;53.394;-6.294;2023-04-22T03:30:25;99998.95;;;16.95;8.74
64698;BME280;51124;53.394;-6.294;2023-04-22T03:32:53;99990.36;;;18.25;8.69
64698;BME280;51124;53.394;-6.294;2023-04-22T03:35:20;99986.78;;;18.09;8.68
64698;BME280;51124;53.394;-6.294;2023-04-22T03:37:47;99984.34;;;19.98;9.07
64698;BME280;51124;53.394;-6.294;2023-04-22T03:40:15;99982.73;;;19.13;9.35
64698;BME280;51124;53.394;-6.294;2023-04-22T03:42:42;99981.93;;;18.28;9.37
64698;BME280;51124;53.394;-6.294;2023-04-22T03:45:10;99976.99;;;20.79;9.58
64698;BME280;51124;53.394;-6.294;2023-04-22T03:47:37;99974.91;;;21.03;10.07
64698;BME280;51124;53.394;-6.294;2023-04-22T03:50:05;99975.41;;;20.37;10.48
64698;BME280;51124;53.394;-6.294;2023-04-22T03:52:33;99963.74;;;20.27;10.57
64698;BME280;51124;53.394;-6.294;2023-04-22T03:55:00;99961.66;;;20.40;10.60
64698;BME280;51124;53.394;-6.294;2023-04-22T03:57:27;99954.83;;;19.93;10.78
64698;BME280;51124;53.394;-6.294;2023-04-22T03:59:55;99950.02;;;20.29;10.91
64698;BME280;51124;53.394;-6.294;2023-04-22T04:02:23;99945.12;;;19.90;10.97
64698;BME280;51124;53.394;-6.294;2023-04-22T04:04:50;99938.84;;;19.89;10.92
64698;BME280;51124;53.394;-6.294;2023-04-22T04:07:17;99932.06;;;19.81;10.94
64698;BME280;51124;53.394;-6.294;2023-04-22T04:09:45;99933.16;;;20.00;11.05
64698;BME280;51124;53.394;-6.294;2023-04-22T04:12:13;99940.14;;;19.83;11.08
64698;BME280;51124;53.394;-6.294;2023-04-22T04:14:40;99938.43;;;19.55;11.08
64698;BME280;51124;53.394;-6.294;2023-04-22T04:17:07;99929.90;;;20.11;11.12
64698;BME280;51124;53.394;-6.294;2023-04-22T04:19:35;99934.02;;;20.17;11.13
64698;BME280;51124;53.394;-6.294;2023-04-22T04:22:03;99938.48;;;19.96;11.27
64698;BME280;51124;53.394;-6.294;2023-04-22T04:24:30;99927.42;;;19.58;11.02
64698;BME280;51124;53.394;-6.294;2023-04-22T04:26:57;99931.96;;;19.05;11.26
64698;BME280;51124;53.394;-6.294;2023-04-22T04:29:25;99930.48;;;19.56;11.18
64698;BME280;51124;53.394;-6.294;2023-04-22T04:31:53;99924.21;;;19.83;11.30
64698;BME280;51124;53.394;-6.294;2023-04-22T04:34:21;99914.60;;;19.14;11.13
64698;BME280;51124;53.394;-6.294;2023-04-22T04:36:48;99905.29;;;18.07;10.63
64698;BME280;51124;53.394;-6.294;2023-04-22T04:39:15;99900.71;;;17.26;10.47
64698;BME280;51124;53.394;-6.294;2023-04-22T04:41:42;99892.59;;;17.46;10.08
64698;BME280;51124;53.394;-6.294;2023-04-22T04:44:10;99884.50;;;17.81;9.90
64698;BME280;51124;53.394;-6.294;2023-04-22T04:46:37;99881.37;;;18.11;9.67
64698;BME280;51124;53.394;-6.294;2023-04-22T04:49:05;99876.20;;;16.99;9.74
64698;BME280;51124;53.394;-6.294;2023-04-22T04:51:32;99873.37;;;17.69;9.49
64698;BME280;51124;53.394;-6.294;2023-04-22T04:53:59;99864.64;;;17.67;9.25
64698;BME280;51124;53.394;-6.294;2023-04-22T04:56:26;99858.91;;;17.19;9.40
64698;BME280;51124;53.394;-6.294;2023-04-22T04:58:54;99861.73;;;18.13;9.25
64698;BME280;51124;53.394;-6.294;2023-04-22T05:01:21;99862.36;;;16.91;9.33
64698;BME280;51124;53.394;-6.294;2023-04-22T05:03:48;99857.01;;;17.03;9.18
64698;BME280;51124;53.394;-6.294;2023-04-22T05:06:16;99854.13;;;17.56;9.12
64698;BME280;51124;53.394;-6.294;2023-04-22T05:08:43;99856.02;;;17.22;9.11
64698;BME280;51124;53.394;-6.294;2023-04-22T05:11:10;99849.91;;;17.35;8.98
64698;BME280;51124;53.394;-6.294;2023-04-22T05:13:37;99848.31;;;17.58;9.03
64698;BME280;51124;53.394;-6.294;2023-04-22T05:16:05;99850.18;;;16.80;8.87
64698;BME280;51124;53.394;-6.294;2023-04-22T05:18:32;99853.57;;;21.22;8.77
64698;BME280;51124;53.394;-6.294;2023-04-22T05:20:59;99856.01;;;20.42;9.66
64698;BME280;51124;53.394;-6.294;2023-04-22T05:23:27;99855.92;;;19.16;10.18
64698;BME280;51124;53.394;-6.294;2023-04-22T05:25:54;99849.11;;;16.66;9.70
64698;BME280;51124;53.394;-6.294;2023-04-22T05:28:21;99839.93;;;17.27;9.38
64698;BME280;51124;53.394;-6.294;2023-04-22T05:30:49;99840.72;;;17.31;9.23
64698;BME280;51124;53.394;-6.294;2023-04-22T05:33:16;99839.20;;;17.57;8.92
64698;BME280;51124;53.394;-6.294;2023-04-22T05:35:43;99836.83;;;17.67;8.86
64698;BME280;51124;53.394;-6.294;2023-04-22T05:38:11;99837.35;;;17.84;8.75
64698;BME280;51124;53.394;-6.294;2023-04-22T05:40:38;99842.21;;;16.70;9.06
64698;BME280;51124;53.394;-6.294;2023-04-22T05:43:05;99841.23;;;17.31;8.78
64698;BME280;51124;53.394;-6.294;2023-04-22T05:45:32;99842.87;;;17.79;8.82
64698;BME280;51124;53.394;-6.294;2023-04-22T05:48:00;99844.10;;;18.00;8.74
64698;BME280;51124;53.394;-6.294;2023-04-22T05:50:27;99842.20;;;17.81;8.63
64698;BME280;51124;53.394;-6.294;2023-04-22T05:52:54;99843.11;;;17.48;8.75
64698;BME280;51124;53.394;-6.294;2023-04-22T05:55:21;99838.19;;;17.80;8.71
64698;BME280;51124;53.394;-6.294;2023-04-22T05:57:48;99840.34;;;17.49;8.60
64698;BME280;51124;53.394;-6.294;2023-04-22T06:00:13;99845.14;;;17.17;8.75
64698;BME280;51124;53.394;-6.294;2023-04-22T06:02:47;99844.64;;;17.56;8.71
64698;BME280;51124;53.394;-6.294;2023-04-22T06:05:20;99842.85;;;17.39;8.82
64698;BME280;51124;53.394;-6.294;2023-04-22T06:07:53;99835.89;;;18.08;8.66
64698;BME280;51124;53.394;-6.294;2023-04-22T06:10:27;99833.27;;;17.63;8.73
64698;BME280;51124;53.394;-6.294;2023-04-22T06:13:00;99829.89;;;17.41;8.82
64698;BME280;51124;53.394;-6.294;2023-04-22T06:15:34;99830.84;;;18.13;8.67
64698;BME280;51124;53.394;-6.294;2023-04-22T06:18:07;99831.12;;;17.43;8.70
64698;BME280;51124;53.394;-6.294;2023-04-22T06:20:40;99825.97;;;17.64;8.71
64698;BME280;51124;53.394;-6.294;2023-04-22T06:23:14;99824.64;;;18.41;8.70
64698;BME280;51124;53.394;-6.294;2023-04-22T06:25:47;99824.90;;;18.66;8.67
64698;BME280;51124;53.394;-6.294;2023-04-22T06:28:20;99829.05;;;18.44;8.64
64698;BME280;51124;53.394;-6.294;2023-04-22T06:30:54;99819.77;;;17.62;8.54
64698;BME280;51124;53.394;-6.294;2023-04-22T06:33:27;99817.38;;;18.21;8.50
64698;BME280;51124;53.394;-6.294;2023-04-22T06:36:00;99819.16;;;17.70;8.61
64698;BME280;51124;53.394;-6.294;2023-04-22T06:38:34;99813.70;;;18.28;8.23
64698;BME280;51124;53.394;-6.294;2023-04-22T06:41:07;99804.49;;;20.46;8.55
64698;BME280;51124;53.394;-6.294;2023-04-22T06:43:41;99806.61;;;19.37;9.24
64698;BME280;51124;53.394;-6.294;2023-04-22T06:46:15;99801.78;;;18.89;9.03
64698;BME280;51124;53.394;-6.294;2023-04-22T06:48:48;99799.50;;;21.16;9.25
64698;BME280;51124;53.394;-6.294;2023-04-22T06:51:22;99798.86;;;21.14;9.72
64698;BME280;51124;53.394;-6.294;2023-04-22T06:53:55;99797.57;;;20.72;10.09
64698;BME280;51124;53.394;-6.294;2023-04-22T06:56:29;99798.03;;;20.50;10.18
64698;BME280;51124;53.394;-6.294;2023-04-22T06:59:03;99794.12;;;20.47;10.30
64698;BME280;51124;53.394;-6.294;2023-04-22T07:01:36;99792.94;;;19.94;10.39
64698;BME280;51124;53.394;-6.294;2023-04-22T07:04:10;99792.58;;;20.92;10.44
64698;BME280;51124;53.394;-6.294;2023-04-22T07:06:43;99793.92;;;19.95;10.54
64698;BME280;51124;53.394;-6.294;2023-04-22T07:09:17;99789.77;;;19.16;10.84
64698;BME280;51124;53.394;-6.294;2023-04-22T07:11:51;99785.46;;;20.39;10.70
64698;BME280;51124;53.394;-6.294;2023-04-22T07:14:25;99788.03;;;19.09;11.04
64698;BME280;51124;53.394;-6.294;2023-04-22T07:16:58;99788.28;;;19.77;10.90
64698;BME280;51124;53.394;-6.294;2023-04-22T07:19:32;99785.71;;;20.32;10.67
64698;BME280;51124;53.394;-6.294;2023-04-22T07:22:06;99787.28;;;19.98;10.70
64698;BME280;51124;53.394;-6.294;2023-04-22T07:24:40;99790.47;;;20.23;10.69
64698;BME280;51124;53.394;-6.294;2023-04-22T07:27:13;99785.08;;;19.77;11.02
64698;BME280;51124;53.394;-6.294;2023-04-22T07:29:47;99781.70;;;19.37;10.96
64698;BME280;51124;53.394;-6.294;2023-04-22T07:32:21;99778.24;;;20.39;10.78
64698;BME280;51124;53.394;-6.294;2023-04-22T07:34:54;99778.58;;;17.74;10.73
64698;BME280;51124;53.394;-6.294;2023-04-22T07:37:27;99774.35;;;17.36;10.22
64698;BME280;51124;53.394;-6.294;2023-04-22T07:40:01;99763.91;;;17.82;9.89
64698;BME280;51124;53.394;-6.294;2023-04-22T07:42:34;99766.54;;;17.54;9.91
64698;BME280;51124;53.394;-6.294;2023-04-22T07:45:08;99764.08;;;17.81;9.61
64698;BME280;51124;53.394;-6.294;2023-04-22T07:47:41;99760.56;;;17.83;9.35
64698;BME280;51124;53.394;-6.294;2023-04-22T07:50:14;99761.20;;;17.73;8.95
64698;BME280;51124;53.394;-6.294;2023-04-22T07:52:48;99758.83;;;17.58;8.90
64698;BME280;51124;53.394;-6.294;2023-04-22T07:55:21;99756.23;;;17.62;8.89
64698;BME280;51124;53.394;-6.294;2023-04-22T07:57:54;99748.66;;;18.53;9.20
64698;BME280;51124;53.394;-6.294;2023-04-22T08:00:28;99752.76;;;18.62;9.17
64698;BME280;51124;53.394;-6.294;2023-04-22T08:03:02;99748.90;;;18.30;8.82
64698;BME280;51124;53.394;-6.294;2023-04-22T08:05:35;99756.63;;;17.46;8.86
64698;BME280;51124;53.394;-6.294;2023-04-22T08:08:09;99748.94;;;18.03;8.58
64698;BME280;51124;53.394;-6.294;2023-04-22T08:10:42;99744.99;;;17.68;8.58
64698;BME280;51124;53.394;-6.294;2023-04-22T08:13:16;99740.59;;;18.22;8.62
64698;BME280;51124;53.394;-6.294;2023-04-22T08:15:49;99739.33;;;17.64;8.60
64698;BME280;51124;53.394;-6.294;2023-04-22T08:18:22;99746.46;;;17.63;8.48
64698;BME280;51124;53.394;-6.294;2023-04-22T08:20:56;99744.34;;;17.02;8.70
64698;BME280;51124;53.394;-6.294;2023-04-22T08:23:29;99742.46;;;16.84;8.72
64698;BME280;51124;53.394;-6.294;2023-04-22T08:26:03;99741.47;;;17.02;8.64
64698;BME280;51124;53.394;-6.294;2023-04-22T08:28:36;99739.70;;;18.42;8.33
64698;BME280;51124;53.394;-6.294;2023-04-22T08:31:10;99736.90;;;17.48;8.62
64698;BME280;51124;53.394;-6.294;2023-04-22T08:33:43;99730.61;;;16.25;8.70
64698;BME280;51124;53.394;-6.294;2023-04-22T08:36:17;99725.92;;;17.47;8.35
64698;BME280;51124;53.394;-6.294;2023-04-22T08:38:50;99725.19;;;18.28;8.28
64698;BME280;51124;53.394;-6.294;2023-04-22T08:41:25;99719.93;;;16.90;8.63
64698;BME280;51124;53.394;-6.294;2023-04-22T08:43:59;99715.56;;;17.31;8.45
64698;BME280;51124;53.394;-6.294;2023-04-22T08:46:33;99708.48;;;17.09;8.56
64698;BME280;51124;53.394;-6.294;2023-04-22T08:49:07;99709.77;;;17.69;8.45
64698;BME280;51124;53.394;-6.294;2023-04-22T08:51:42;99711.14;;;17.17;8.79
64698;BME280;51124;53.394;-6.294;2023-04-22T08:54:15;99706.45;;;16.68;8.60
64698;BME280;51124;53.394;-6.294;2023-04-22T08:56:49;99702.15;;;17.67;8.47
64698;BME280;51124;53.394;-6.294;2023-04-22T08:59:23;99704.91;;;17.17;8.38
64698;BME280;51124;53.394;-6.294;2023-04-22T09:01:56;99702.45;;;18.41;8.20
64698;BME280;51124;53.394;-6.294;2023-04-22T09:04:31;99703.48;;;18.55;8.21
64698;BME280;51124;53.394;-6.294;2023-04-22T09:07:05;99700.12;;;18.21;8.31
64698;BME280;51124;53.394;-6.294;2023-04-22T09:09:39;99697.69;;;18.34;8.19
64698;BME280;51124;53.394;-6.294;2023-04-22T09:12:12;99693.82;;;18.68;8.19
64698;BME280;51124;53.394;-6.294;2023-04-22T09:14:45;99693.20;;;18.72;8.15
64698;BME280;51124;53.394;-6.294;2023-04-22T09:17:29;99694.16;;;18.92;8.27
64698;BME280;51124;53.394;-6.294;2023-04-22T09:19:56;99690.32;;;18.42;8.15
64698;BME280;51124;53.394;-6.294;2023-04-22T09:22:19;99687.82;;;18.77;8.13
64698;BME280;51124;53.394;-6.294;2023-04-22T09:24:53;99684.90;;;18.28;8.13
64698;BME280;51124;53.394;-6.294;2023-04-22T09:27:27;99676.43;;;18.09;8.11
64698;BME280;51124;53.394;-6.294;2023-04-22T09:30:05;99680.94;;;17.00;9.00
64698;BME280;51124;53.394;-6.294;2023-04-22T09:32:30;99675.96;;;19.13;9.28
64698;BME280;51124;53.394;-6.294;2023-04-22T09:35:04;99671.60;;;20.92;9.07
64698;BME280;51124;53.394;-6.294;2023-04-22T09:37:38;99670.90;;;20.38;9.00
64698;BME280;51124;53.394;-6.294;2023-04-22T09:40:14;99666.49;;;18.20;9.55
64698;BME280;51124;53.394;-6.294;2023-04-22T09:42:47;99674.00;;;21.09;9.75
64698;BME280;51124;53.394;-6.294;2023-04-22T09:45:11;99674.08;;;20.69;10.02
64698;BME280;51124;53.394;-6.294;2023-04-22T09:47:45;99674.82;;;20.61;10.23
64698;BME280;51124;53.394;-6.294;2023-04-22T09:50:19;99678.09;;;20.77;10.39
64698;BME280;51124;53.394;-6.294;2023-04-22T09:52:54;99679.27;;;20.45;10.57
64698;BME280;51124;53.394;-6.294;2023-04-22T09:55:32;99683.28;;;20.95;10.49
64698;BME280;51124;53.394;-6.294;2023-04-22T09:57:56;99683.91;;;20.66;10.60
64698;BME280;51124;53.394;-6.294;2023-04-22T10:00:31;99684.57;;;20.71;10.64
64698;BME280;51124;53.394;-6.294;2023-04-22T10:03:04;99683.06;;;20.56;10.78
64698;BME280;51124;53.394;-6.294;2023-04-22T10:05:38;99677.89;;;20.44;10.85
64698;BME280;51124;53.394;-6.294;2023-04-22T10:08:13;99675.62;;;19.97;10.95
64698;BME280;51124;53.394;-6.294;2023-04-22T10:10:38;99672.64;;;20.51;10.81
64698;BME280;51124;53.394;-6.294;2023-04-22T10:13:12;99675.09;;;19.94;10.96
64698;BME280;51124;53.394;-6.294;2023-04-22T10:15:49;99669.89;;;20.12;10.83
64698;BME280;51124;53.394;-6.294;2023-04-22T10:18:18;99668.56;;;19.87;10.93
64698;BME280;51124;53.394;-6.294;2023-04-22T10:20:44;99665.67;;;20.05;10.89
64698;BME280;51124;53.394;-6.294;2023-04-22T10:23:12;99666.68;;;20.41;10.81
64698;BME280;51124;53.394;-6.294;2023-04-22T10:25:38;99667.78;;;19.58;10.96
64698;BME280;51124;53.394;-6.294;2023-04-22T10:28:03;99667.21;;;20.59;10.70
64698;BME280;51124;53.394;-6.294;2023-04-22T10:30:28;99665.21;;;20.30;10.72
64698;BME280;51124;53.394;-6.294;2023-04-22T10:33:35;99662.99;;;17.89;10.76
64698;BME280;51124;53.394;-6.294;2023-04-22T10:35:28;99664.14;;;18.47;10.12
64698;BME280;51124;53.394;-6.294;2023-04-22T10:38:06;99657.69;;;18.84;9.61
64698;BME280;51124;53.394;-6.294;2023-04-22T10:40:32;99653.55;;;18.73;9.33
64698;BME280;51124;53.394;-6.294;2023-04-22T10:42:57;99652.96;;;19.13;9.31
64698;BME280;51124;53.394;-6.294;2023-04-22T10:45:24;99653.68;;;17.83;9.68
64698;BME280;51124;53.394;-6.294;2023-04-22T10:47:47;99646.64;;;18.21;8.96
64698;BME280;51124;53.394;-6.294;2023-04-22T10:50:22;99641.45;;;18.17;9.36
64698;BME280;51124;53.394;-6.294;2023-04-22T10:52:48;99644.65;;;19.00;9.42
64698;BME280;51124;53.394;-6.294;2023-04-22T10:55:12;99644.50;;;19.18;8.94
64698;BME280;51124;53.394;-6.294;2023-04-22T10:57:46;99643.97;;;18.94;8.70
64698;BME280;51124;53.394;-6.294;2023-04-22T11:00:31;99644.61;;;18.69;8.74
64698;BME280;51124;53.394;-6.294;2023-04-22T11:03:07;99647.49;;;18.51;8.77
64698;BME280;51124;53.394;-6.294;2023-04-22T11:05:22;99648.15;;;18.80;8.79
64698;BME280;51124;53.394;-6.294;2023-04-22T11:07:46;99658.65;;;17.29;8.88
64698;BME280;51124;53.394;-6.294;2023-04-22T11:10:37;99659.71;;;17.57;8.65
64698;BME280;51124;53.394;-6.294;2023-04-22T11:12:51;99660.59;;;18.24;8.61
64698;BME280;51124;53.394;-6.294;2023-04-22T11:15:28;99654.68;;;17.07;8.94
64698;BME280;51124;53.394;-6.294;2023-04-22T11:17:53;99656.30;;;19.23;8.37
64698;BME280;51124;53.394;-6.294;2023-04-22T11:20:27;99649.28;;;18.69;8.56
64698;BME280;51124;53.394;-6.294;2023-04-22T11:23:02;99648.57;;;18.33;8.52
64698;BME280;51124;53.394;-6.294;2023-04-22T11:25:35;99642.71;;;18.50;9.56
64698;BME280;51124;53.394;-6.294;2023-04-22T11:28:09;99647.89;;;17.81;9.27
64698;BME280;51124;53.394;-6.294;2023-04-22T11:30:43;99649.84;;;18.25;8.68
64698;BME280;51124;53.394;-6.294;2023-04-22T11:33:17;99645.82;;;18.23;8.68
64698;BME280;51124;53.394;-6.294;2023-04-22T11:35:51;99645.46;;;18.19;8.61
64698;BME280;51124;53.394;-6.294;2023-04-22T11:38:24;99646.42;;;17.88;8.71
64698;BME280;51124;53.394;-6.294;2023-04-22T11:40:57;99647.31;;;17.62;8.72
64698;BME280;51124;53.394;-6.294;2023-04-22T11:43:31;99646.83;;;17.85;8.77
64698;BME280;51124;53.394;-6.294;2023-04-22T11:46:04;99647.54;;;17.80;8.68
64698;BME280;51124;53.394;-6.294;2023-04-22T11:48:38;99648.01;;;17.46;8.76
64698;BME280;51124;53.394;-6.294;2023-04-22T11:51:11;99647.37;;;17.43;8.82
64698;BME280;51124;53.394;-6.294;2023-04-22T11:53:49;99652.63;;;16.79;8.71
64698;BME280;51124;53.394;-6.294;2023-04-22T11:56:12;99650.43;;;17.90;8.63
64698;BME280;51124;53.394;-6.294;2023-04-22T11:58:46;99649.50;;;18.28;8.91
64698;BME280;51124;53.394;-6.294;2023-04-22T12:01:19;99649.51;;;17.48;9.05
64698;BME280;51124;53.394;-6.294;2023-04-22T12:03:58;99652.84;;;18.04;9.02
64698;BME280;51124;53.394;-6.294;2023-04-22T12:06:22;99645.31;;;17.70;8.74
64698;BME280;51124;53.394;-6.294;2023-04-22T12:08:55;99648.97;;;17.72;8.77
64698;BME280;51124;53.394;-6.294;2023-04-22T12:11:28;99642.86;;;17.87;8.71
64698;BME280;51124;53.394;-6.294;2023-04-22T12:14:05;99646.69;;;18.14;8.50
64698;BME280;51124;53.394;-6.294;2023-04-22T12:16:28;99648.43;;;18.21;8.65
64698;BME280;51124;53.394;-6.294;2023-04-22T12:19:02;99646.96;;;18.57;8.63
64698;BME280;51124;53.394;-6.294;2023-04-22T12:21:35;99645.50;;;18.01;8.51
64698;BME280;51124;53.394;-6.294;2023-04-22T12:24:09;99646.23;;;17.80;8.45
64698;BME280;51124;53.394;-6.294;2023-04-22T12:26:42;99646.98;;;18.28;8.43
64698;BME280;51124;53.394;-6.294;2023-04-22T12:29:16;99643.11;;;17.85;8.59
64698;BME280;51124;53.394;-6.294;2023-04-22T12:31:49;99640.37;;;20.02;8.44
64698;BME280;51124;53.394;-6.294;2023-04-22T12:34:23;99642.90;;;19.99;8.90
64698;BME280;51124;53.394;-6.294;2023-04-22T12:36:57;99642.98;;;18.66;9.24
64698;BME280;51124;53.394;-6.294;2023-04-22T12:39:30;99645.02;;;18.56;9.09
64698;BME280;51124;53.394;-6.294;2023-04-22T12:42:04;99653.87;;;20.89;9.45
64698;BME280;51124;53.394;-6.294;2023-04-22T12:44:38;99647.49;;;21.24;9.84
64698;BME280;51124;53.394;-6.294;2023-04-22T12:47:12;99648.29;;;20.53;10.26
64698;BME280;51124;53.394;-6.294;2023-04-22T12:49:45;99649.45;;;19.89;10.41
64698;BME280;51124;53.394;-6.294;2023-04-22T12:52:19;99648.89;;;20.28;10.48
64698;BME280;51124;53.394;-6.294;2023-04-22T12:54:53;99649.44;;;19.44;11.31
64698;BME280;51124;53.394;-6.294;2023-04-22T12:57:30;99650.65;;;19.91;10.78
64698;BME280;51124;53.394;-6.294;2023-04-22T12:59:59;99650.80;;;19.94;10.83
64698;BME280;51124;53.394;-6.294;2023-04-22T13:02:26;99650.69;;;19.88;10.70
64698;BME280;51124;53.394;-6.294;2023-04-22T13:04:54;99650.60;;;19.96;10.84
64698;BME280;51124;53.394;-6.294;2023-04-22T13:07:21;99650.55;;;20.05;10.84
64698;BME280;51124;53.394;-6.294;2023-04-22T13:09:49;99650.92;;;19.81;10.84